Date,TemperatureHighF,TemperatureAvgF,TemperatureLowF,DewpointHighF,DewpointAvgF,DewpointLowF,HumidityHigh,HumidityAvg,HumidityLow,PressureMaxIn,PressureMinIn,WindSpeedMaxMPH,WindSpeedAvgMPH,GustSpeedMaxMPH,PrecipitationSumIn
2013-1-1,67.3,56.6,47.3,67.0,56.0,45.9,100,98,93,30.03,29.70,20,10,32,0.07
2013-1-2,47.3,42.7,41.0,46.3,42.2,40.7,100,98,94,30.15,30.01,16,9,27,0.09
2013-1-3,49.6,45.3,41.5,42.2,39.5,36.0,97,81,60,30.25,30.13,12,9,21,0.00
2013-1-4,51.1,47.8,43.0,42.9,41.1,38.5,94,78,64,30.31,30.19,12,8,21,0.00
2013-1-5,48.0,46.1,43.7,47.8,45.1,39.4,100,96,76,30.22,30.08,12,8,20,0.02
2013-1-6,59.5,48.6,40.3,49.1,44.9,40.0,99,88,61,30.20,30.10,14,7,22,0.00
2013-1-7,58.1,50.5,41.9,55.6,49.4,41.6,100,96,82,30.15,29.89,17,7,24,0.00
2013-1-8,61.0,57.8,53.6,60.7,57.5,53.3,99,99,99,29.88,29.67,19,8,27,0.57
2013-1-9,69.4,61.3,57.4,69.2,61.0,57.1,99,99,96,29.89,29.65,26,9,36,1.18
2013-1-10,66.2,59.4,54.3,60.5,55.8,52.2,100,89,61,29.97,29.83,10,6,20,0.01
2013-1-11,64.0,60.2,51.3,63.8,60.0,51.0,99,99,99,29.90,29.69,14,6,17,0.00
2013-1-12,70.0,64.8,62.8,65.3,55.8,9.2,100,80,10,29.71,29.48,27,11,39,0.00
2013-1-13,67.6,50.6,43.9,55.9,22.0,-8.6,66,36,10,29.96,29.59,26,14,37,0.06
2013-1-14,48.9,44.3,39.4,32.2,11.5,-12.6,53,29,10,30.04,29.91,18,11,28,0.00
2013-1-15,45.9,41.4,38.7,34.9,17.3,-12.9,72,41,10,30.03,29.88,14,10,27,0.06
2013-1-16,56.7,44.9,35.8,33.1,21.6,-12.3,64,41,10,30.19,30.04,15,8,27,0.07
2013-1-17,65.5,49.6,34.2,41.2,21.7,-16.5,62,37,10,30.31,30.14,11,4,18,0.00
2013-1-18,59.4,51.5,42.1,25.1,0.7,-10.5,43,13,10,30.36,30.19,12,7,17,0.00
2013-1-19,61.9,55.6,48.7,4.8,-0.1,-5.4,10,10,10,30.19,30.03,12,7,16,0.00
2013-1-20,68.7,58.7,49.6,38.7,13.5,-0.4,62,21,10,30.10,29.95,10,5,13,0.00
2013-1-21,70.0,60.4,53.6,37.4,10.2,0.2,52,16,10,30.08,29.96,10,4,12,0.01
2013-1-22,72.9,60.2,51.4,42.7,16.6,0.2,67,24,10,30.16,30.03,12,6,15,0.00
2013-1-23,71.6,63.2,55.4,49.2,27.4,3.6,76,34,10,30.19,30.08,13,7,18,0.01
2013-1-24,75.4,66.3,59.0,57.9,32.6,7.5,93,39,10,30.14,30.00,15,8,24,0.01
2013-1-25,75.4,66.9,59.4,52.4,25.5,7.4,67,29,10,30.03,29.92,17,8,25,0.01
2013-1-26,72.5,68.1,64.8,36.2,14.9,7.5,34,14,10,30.02,29.93,14,9,17,0.00
2013-1-27,70.9,68.5,66.7,42.1,11.9,8.5,38,11,10,29.96,29.85,18,13,23,0.00
2013-1-28,72.7,69.5,67.8,46.4,20.9,9.3,44,17,10,29.93,29.78,19,14,24,0.00
2013-1-29,74.5,70.4,61.7,43.1,20.3,4.6,39,16,10,29.78,29.44,26,19,40,0.04
2013-1-30,66.7,59.1,48.0,43.9,27.7,12.7,54,32,13,30.12,29.61,21,9,40,3.18
2013-1-31,66.6,59.6,50.5,44.6,36.1,2.3,56,44,10,30.17,30.06,13,8,19,0.00